WEATHER DATA

YESTERDAY
Time Temp. Dewp. Hum. Wind dir Wind speed Wind gust Bar. 1h Prec. 24h Prec.
00:02 12.7 9.7 82 225 0.6 1.1 1022.8 0.0000 0.0000
00:12 12.7 9.7 82 225 0.3 1.1 1022.7 0.0000 0.0000
00:22 12.6 9.8 83 229 0.3 0.8 1022.8 0.0000 0.0000
00:32 12.6 9.8 83 135 0.3 0.8 1022.7 0.0000 0.0000
00:53 12.5 9.9 84 90 0.3 0.6 1022.7 0.0000 0.0000
01:04 12.4 9.8 84 90 0.3 0.6 1022.7 0.0000 0.0000
01:14 12.3 9.5 83 90 0.3 0.6 1022.8 0.0000 0.0000
01:24 12.1 9.3 83 59 0.3 0.8 1022.7 0.0000 0.0000
01:34 12 9.2 83 90 0.3 0.6 1022.7 0.0000 0.0000
01:44 11.9 9.3 84 90 0.3 0.6 1022.7 0.0000 0.0000
01:54 11.8 9.2 84 90 0.3 0.6 1022.7 0.0000 0.0000
02:04 11.7 9.1 84 90 0.3 0.6 1022.6 0.0000 0.0000
02:15 11.6 9 84 90 0.3 0.6 1022.7 0.0000 0.0000
02:25 11.5 8.9 84 90 0.3 0.6 1022.6 0.0000 0.0000
02:35 11.4 9 85 0 0.6 1022.7 0.0000 0.0000
02:45 11.4 9 85 90 0.3 0.6 1022.8 0.0000 0.0000
02:56 11.3 8.9 85 0 0.6 1022.8 0.0000 0.0000
03:06 11.3 8.9 85 90 0.3 0.6 1022.8 0.0000 0.0000
03:16 11.2 8.8 85 0 0.3 1022.9 0.0000 0.0000
03:25 11.2 8.8 85 90 0.3 0.6 1022.7 0.0000 0.0000
03:36 11.1 8.7 85 125 0.3 0.6 1022.6 0.0000 0.0000
03:46 11.1 8.7 85 90 0.3 0.6 1022.6 0.0000 0.0000
03:56 11 8.6 85 0 0.3 1022.4 0.0000 0.0000
04:06 10.9 8.5 85 90 0.3 0.6 1022.5 0.0000 0.0000
04:16 10.8 8.4 85 0 0.6 1022.6 0.0000 0.0000
04:26 10.7 8.3 85 0 0.3 1022.6 0.0000 0.0000
04:36 10.6 8.4 86 198 0.3 0.8 1022.4 0.0000 0.0000
04:47 10.6 8.4 86 165 0.3 0.6 1022.5 0.0000 0.0000
04:57 10.6 8.4 86 0 0.6 1022.4 0.0000 0.0000
05:07 10.5 8.3 86 209 0.3 0.6 1022.6 0.0000 0.0000
05:17 10.5 8.4 87 221 0.3 1.4 1022.3 0.0000 0.0000
05:27 10.6 8.5 87 90 0.3 0.6 1022.4 0.0000 0.0000
05:37 10.6 8.5 87 90 0.3 1.1 1022.5 0.0000 0.0000
05:47 10.4 8.3 87 90 0.3 0.6 1022.5 0.0000 0.0000
05:58 10.2 8.1 87 0 0.3 1022.6 0.0000 0.0000
06:08 10.1 8 87 144 0.3 0.6 1022.5 0.0000 0.0000
06:18 10 7.9 87 161 0.3 0.6 1022.6 0.0000 0.0000
06:27 9.9 7.8 87 0 0.6 1022.5 0.0000 0.0000
06:38 9.9 7.8 87 216 0.3 0.8 1022.5 0.0000 0.0000
06:48 9.9 7.8 87 90 0.3 0.8 1022.5 0.0000 0.0000
06:58 9.8 7.7 87 90 0.3 0.6 1022.6 0.0000 0.0000
07:08 9.7 7.8 88 0 0.3 1022.6 0.0000 0.0000
07:18 9.6 7.5 87 90 0.3 0.6 1022.7 0.0000 0.0000
07:28 9.5 7.4 87 0 0.6 1022.7 0.0000 0.0000
07:38 9.5 7.6 88 90 0.3 0.6 1022.8 0.0000 0.0000
07:49 9.4 7.5 88 90 0.3 0.6 1023 0.0000 0.0000
07:59 9.3 7.4 88 0 0.3 1023.1 0.0000 0.0000
08:08 9.3 7.4 88 0 0.6 1023 0.0000 0.0000
08:19 9.3 7.4 88 0 0.6 1023.1 0.0000 0.0000
08:29 9.4 7.7 89 90 0.3 0.6 1023.1 0.0000 0.0000
08:39 9.5 7.8 89 90 0.3 0.8 1023.2 0.0000 0.0000
08:49 9.5 7.9 90 90 0.3 0.6 1023.2 0.0000 0.0000
09:00 9.6 8 90 90 0.3 0.8 1023.1 0.0000 0.0000
09:10 9.7 8.3 91 90 0.3 0.6 1023.1 0.0000 0.0000
09:20 9.8 8.4 91 90 0.3 0.6 1023.2 0.0000 0.0000
09:40 10.1 8.9 92 90 0.3 0.6 1023.2 0.0000 0.0000
09:50 10.3 9.1 92 90 0.3 0.8 1023.2 0.0000 0.0000
10:00 10.5 9.3 92 206 0.3 0.8 1023 0.0000 0.0000
10:10 10.8 9.7 93 204 0.3 1.1 1023.1 0.0000 0.0000
10:21 11.2 10.1 93 186 0.3 0.6 1023 0.0000 0.0000
10:30 11.5 10.4 93 90 0.3 0.6 1023.1 0.0000 0.0000
10:40 11.9 10.8 93 234 0.3 0.8 1023.2 0.0000 0.0000
10:51 12.2 10.9 92 125 0.3 0.6 1023.1 0.0000 0.0000
11:01 12.6 11.3 92 135 0.3 0.8 1023 0.0000 0.0000
11:12 13 11.7 92 0 0.6 1023.1 0.0000 0.0000
11:21 13.4 12.1 92 38 0.6 1.1 1023 0.0000 0.0000
11:32 13.8 12.4 91 40 0.6 1.4 1022.9 0.0000 0.0000
11:42 14.1 12.5 90 63 0.6 1.7 1022.9 0.0000 0.0000
11:52 14.5 12.5 88 59 0.6 1.7 1022.9 0.0000 0.0000
12:02 14.8 12.7 87 32 0.8 1.9 1022.8 0.0000 0.0000
12:13 15.1 12.8 86 32 0.3 1.1 1022.8 0.0000 0.0000
12:22 15.3 13 86 53 0.3 0.8 1022.7 0.0000 0.0000
12:32 15.6 13.1 85 47 0.6 1.1 1022.6 0.0000 0.0000
12:42 15.9 13.2 84 45 0.3 0.8 1022.3 0.0000 0.0000
12:53 16.2 13.3 83 54 0.3 0.8 1022.5 0.0000 0.0000
13:03 16.5 13.4 82 50 0.3 0.8 1022.3 0.0000 0.0000
13:12 16.8 13.5 81 45 0.6 1.4 1022.2 0.0000 0.0000
13:23 17 13.5 80 37 0.3 1.1 1022.2 0.0000 0.0000
13:33 17.3 13.4 78 0 0.6 1022.1 0.0000 0.0000
13:43 17.6 13.7 78 90 0.3 1.1 1022.2 0.0000 0.0000
13:53 17.9 13.8 77 50 0.3 0.8 1022 0.0000 0.0000
14:04 18.1 13.8 76 45 0.3 0.8 1021.9 0.0000 0.0000
14:14 18.3 13.8 75 49 0.3 1.1 1021.8 0.0000 0.0000
14:24 18.5 14 75 90 0.3 0.8 1021.8 0.0000 0.0000
14:34 18.6 13.9 74 56 0.3 0.8 1021.7 0.0000 0.0000
14:45 18.8 14.1 74 53 0.3 0.8 1021.8 0.0000 0.0000
14:54 18.9 14 73 90 0.3 1.1 1021.6 0.0000 0.0000
15:04 19.1 13.9 72 45 0.6 1.7 1021.6 0.0000 0.0000
15:15 19.2 14 72 0 0.6 1021.6 0.0000 0.0000
15:25 19.2 13.8 71 49 0.6 1.4 1021.5 0.0000 0.0000
15:35 19.3 13.9 71 59 0.3 0.8 1021.5 0.0000 0.0000
15:45 19.3 13.7 70 149 0.3 0.6 1021.4 0.0000 0.0000
15:56 19.3 13.7 70 56 0.3 0.6 1021.4 0.0000 0.0000
16:06 19.4 13.6 69 48 0.3 1.1 1021.4 0.0000 0.0000
16:16 19.4 13.8 70 0 0.6 1021.4 0.0000 0.0000
16:26 19.4 13.6 69 90 0.3 0.8 1021.5 0.0000 0.0000
16:37 19.5 13.7 69 51 0.6 1.1 1021.3 0.0000 0.0000
16:46 19.5 13.7 69 56 0.3 1.1 1021.3 0.0000 0.0000
16:56 19.5 13.7 69 45 0.3 0.6 1021.3 0.0000 0.0000
17:07 19.4 13.8 70 0 0.6 1021.3 0.0000 0.0000
17:17 19.3 13.7 70 0 0.6 1021.2 0.0000 0.0000
17:27 19.1 13.7 71 0 0.3 1021.2 0.0000 0.0000
17:36 18.9 13.5 71 0 0.3 1021.2 0.0000 0.0000
17:48 18.6 13.5 72 90 0.3 0.6 1021.3 0.0000 0.0000
17:58 18.3 13.4 73 90 0.3 0.6 1021.3 0.0000 0.0000
18:08 18 13.1 73 90 0.3 0.6 1021.4 0.0000 0.0000
18:17 17.7 13 74 90 0.3 0.6 1021.5 0.0000 0.0000
18:28 17.3 12.6 74 0 0.6 1021.5 0.0000 0.0000
18:38 17 12.3 74 0 0.3 1021.5 0.0000 0.0000
18:48 16.7 12.3 75 170 0.3 0.6 1021.5 0.0000 0.0000
18:58 16.4 12 75 149 0.3 0.6 1021.7 0.0000 0.0000
19:09 16.1 11.9 76 0 0.3 1021.9 0.0000 0.0000
19:18 15.9 11.9 77 208 0.3 0.6 1021.9 0.0000 0.0000
19:28 15.7 11.7 77 156 0.3 0.6 1022 0.0000 0.0000
19:39 15.4 11.4 77 90 0.3 0.6 1021.9 0.0000 0.0000
19:49 15.2 11.4 78 225 0.3 0.8 1022.1 0.0000 0.0000
19:59 15 11.2 78 186 0.3 0.6 1022.1 0.0000 0.0000
20:09 14.9 11.3 79 198 0.3 0.6 1022.2 0.0000 0.0000
20:19 14.7 11.1 79 90 0.3 0.6 1022.4 0.0000 0.0000
20:29 14.5 10.9 79 150 0.3 0.6 1022.3 0.0000 0.0000
20:39 14.3 10.9 80 208 0.3 0.8 1022.4 0.0000 0.0000
20:50 14.2 10.8 80 180 0.3 0.6 1022.7 0.0000 0.0000
21:00 14.1 10.9 81 135 0.3 0.6 1022.7 0.0000 0.0000
21:09 14 10.8 81 174 0.3 0.6 1022.6 0.0000 0.0000
21:19 13.8 10.6 81 155 0.3 0.6 1022.7 0.0000 0.0000
21:30 13.7 10.7 82 0 0.6 1022.7 0.0000 0.0000
21:40 13.7 10.7 82 185 0.3 0.6 1022.8 0.0000 0.0000
21:50 13.6 10.6 82 214 0.3 1.1 1022.8 0.0000 0.0000
22:00 13.5 10.5 82 221 0.6 1.1 1022.9 0.0000 0.0000
22:10 13.4 10.6 83 216 0.3 1.1 1022.9 0.0000 0.0000
22:21 13.3 10.5 83 215 0.3 1.1 1022.9 0.0000 0.0000
22:30 13.3 10.5 83 220 0.3 1.1 1023 0.0000 0.0000
22:41 13.3 10.5 83 203 0.3 0.8 1022.9 0.0000 0.0000
22:52 13.2 10.4 83 216 0.3 0.8 1022.8 0.0000 0.0000
23:02 13.1 10.3 83 221 0.6 1.4 1022.8 0.0000 0.0000
23:11 13 10.2 83 205 0.3 0.8 1022.8 0.0000 0.0000
23:22 12.9 10.3 84 206 0.3 0.8 1022.9 0.0000 0.0000
23:32 12.8 10.2 84 173 0.3 0.8 1022.9 0.0000 0.0000
23:42 12.7 9.9 83 143 0.3 0.6 1022.9 0.0000 0.0000
23:52 12.6 10 84 209 0.3 0.8 1022.9 0.0000 0.0000

DAY STATISTIC

2018-10-17
TEMPERATURE
AVERAGE
13.7
HIGH
19.5
16:37
LOW
9.3
07:59
PRESSURE
AVERAGE
1022.4
HIGH
1023.2
08:39
LOW
1021.2
17:17
DEWPOINT
AVERAGE
10.7
HIGH
14.1
14:45
LOW
7.4
07:28
HUMIDITY
AVERAGE
82
HIGH
93
10:10
LOW
69
16:06
WIND SPEED
AVERAGE
0.3
HIGH
0.8
12:02
WIND GUST
AVERAGE
0.8
HIGH
1.9
12:02
WIND DIRECTION
PREVAILING
E
29.3%
N
0.0
NE
19.3
E
29.3
SE
8.6
S
9.3
SW
15.0
W
0.0
NW
0.0
PRECIPITATION
RAIN HOUR
0.0
RAIN DAY
0.0
TEMPERATURE (°C)
LOW
9.3
HIGH
19.5
AVERAGE
13.7
PRESSURE (hpa)
LOW
1021.2
HIGH
1023.2
AVERAGE
1022.4
DEVICE